sensor_id;sensor_type;location;lat;lon;timestamp;P1;durP1;ratioP1;P2;durP2;ratioP2
27003;SDS011;14546;47.590;19.022;2023-03-14T00:01:31;14.13;;;9.40;;
27003;SDS011;14546;47.590;19.022;2023-03-14T00:03:57;18.10;;;9.55;;
27003;SDS011;14546;47.590;19.022;2023-03-14T00:06:24;18.92;;;9.57;;
27003;SDS011;14546;47.590;19.022;2023-03-14T00:08:50;18.88;;;9.13;;
27003;SDS011;14546;47.590;19.022;2023-03-14T00:11:20;14.13;;;9.10;;
27003;SDS011;14546;47.590;19.022;2023-03-14T00:13:50;15.63;;;8.73;;
27003;SDS011;14546;47.590;19.022;2023-03-14T00:16:16;14.75;;;9.25;;
27003;SDS011;14546;47.590;19.022;2023-03-14T00:18:42;16.35;;;8.90;;
27003;SDS011;14546;47.590;19.022;2023-03-14T00:21:09;17.30;;;8.68;;
27003;SDS011;14546;47.590;19.022;2023-03-14T00:23:36;16.33;;;8.98;;
27003;SDS011;14546;47.590;19.022;2023-03-14T00:26:03;15.48;;;9.40;;
27003;SDS011;14546;47.590;19.022;2023-03-14T00:28:30;16.30;;;9.32;;
27003;SDS011;14546;47.590;19.022;2023-03-14T00:30:56;17.33;;;9.85;;
27003;SDS011;14546;47.590;19.022;2023-03-14T00:33:22;14.55;;;8.10;;
27003;SDS011;14546;47.590;19.022;2023-03-14T00:35:52;14.05;;;9.10;;
27003;SDS011;14546;47.590;19.022;2023-03-14T00:38:18;14.20;;;8.75;;
27003;SDS011;14546;47.590;19.022;2023-03-14T00:40:44;20.10;;;8.65;;
27003;SDS011;14546;47.590;19.022;2023-03-14T00:43:10;19.13;;;8.60;;
27003;SDS011;14546;47.590;19.022;2023-03-14T00:45:36;18.92;;;9.13;;
27003;SDS011;14546;47.590;19.022;2023-03-14T00:48:02;17.63;;;9.13;;
27003;SDS011;14546;47.590;19.022;2023-03-14T00:50:28;17.70;;;8.82;;
27003;SDS011;14546;47.590;19.022;2023-03-14T00:52:54;14.73;;;8.60;;
27003;SDS011;14546;47.590;19.022;2023-03-14T00:55:20;22.90;;;9.68;;
27003;SDS011;14546;47.590;19.022;2023-03-14T00:57:46;16.92;;;9.15;;
27003;SDS011;14546;47.590;19.022;2023-03-14T01:00:13;17.00;;;8.82;;
27003;SDS011;14546;47.590;19.022;2023-03-14T01:02:39;16.85;;;9.20;;
27003;SDS011;14546;47.590;19.022;2023-03-14T01:05:05;18.50;;;8.85;;
27003;SDS011;14546;47.590;19.022;2023-03-14T01:07:32;14.18;;;8.85;;
27003;SDS011;14546;47.590;19.022;2023-03-14T01:09:58;15.52;;;9.52;;
27003;SDS011;14546;47.590;19.022;2023-03-14T01:12:24;13.10;;;8.18;;
27003;SDS011;14546;47.590;19.022;2023-03-14T01:14:50;17.90;;;9.25;;
27003;SDS011;14546;47.590;19.022;2023-03-14T01:17:16;20.48;;;10.60;;
27003;SDS011;14546;47.590;19.022;2023-03-14T01:19:42;21.77;;;9.40;;
27003;SDS011;14546;47.590;19.022;2023-03-14T01:22:08;15.82;;;10.00;;
27003;SDS011;14546;47.590;19.022;2023-03-14T01:24:34;13.65;;;8.43;;
27003;SDS011;14546;47.590;19.022;2023-03-14T01:27:02;19.98;;;9.77;;
27003;SDS011;14546;47.590;19.022;2023-03-14T01:29:28;17.55;;;9.32;;
27003;SDS011;14546;47.590;19.022;2023-03-14T01:31:54;16.92;;;9.48;;
27003;SDS011;14546;47.590;19.022;2023-03-14T01:34:20;17.35;;;9.70;;
27003;SDS011;14546;47.590;19.022;2023-03-14T01:36:46;17.35;;;10.13;;
27003;SDS011;14546;47.590;19.022;2023-03-14T01:39:12;16.73;;;10.00;;
27003;SDS011;14546;47.590;19.022;2023-03-14T01:41:39;18.58;;;10.13;;
27003;SDS011;14546;47.590;19.022;2023-03-14T01:44:05;17.05;;;9.52;;
27003;SDS011;14546;47.590;19.022;2023-03-14T01:46:34;14.20;;;9.05;;
27003;SDS011;14546;47.590;19.022;2023-03-14T01:51:30;19.05;;;9.25;;
27003;SDS011;14546;47.590;19.022;2023-03-14T01:54:21;17.63;;;10.00;;
27003;SDS011;14546;47.590;19.022;2023-03-14T01:56:49;19.45;;;9.10;;
27003;SDS011;14546;47.590;19.022;2023-03-14T01:59:16;14.98;;;8.65;;
27003;SDS011;14546;47.590;19.022;2023-03-14T02:01:42;15.73;;;9.48;;
27003;SDS011;14546;47.590;19.022;2023-03-14T02:04:09;15.13;;;10.20;;
27003;SDS011;14546;47.590;19.022;2023-03-14T02:06:39;19.77;;;10.43;;
27003;SDS011;14546;47.590;19.022;2023-03-14T02:09:06;15.55;;;9.70;;
27003;SDS011;14546;47.590;19.022;2023-03-14T02:11:32;17.45;;;10.07;;
27003;SDS011;14546;47.590;19.022;2023-03-14T02:13:58;17.67;;;10.35;;
27003;SDS011;14546;47.590;19.022;2023-03-14T02:16:25;18.65;;;10.40;;
27003;SDS011;14546;47.590;19.022;2023-03-14T02:18:51;16.13;;;9.68;;
27003;SDS011;14546;47.590;19.022;2023-03-14T02:29:26;19.08;;;10.23;;
27003;SDS011;14546;47.590;19.022;2023-03-14T02:31:53;16.17;;;9.98;;
27003;SDS011;14546;47.590;19.022;2023-03-14T02:34:19;21.15;;;10.50;;
27003;SDS011;14546;47.590;19.022;2023-03-14T02:36:45;18.05;;;10.30;;
27003;SDS011;14546;47.590;19.022;2023-03-14T02:39:14;23.88;;;10.52;;
27003;SDS011;14546;47.590;19.022;2023-03-14T02:41:41;19.20;;;11.85;;
27003;SDS011;14546;47.590;19.022;2023-03-14T02:44:10;20.73;;;11.63;;
27003;SDS011;14546;47.590;19.022;2023-03-14T02:46:36;18.80;;;10.77;;
27003;SDS011;14546;47.590;19.022;2023-03-14T02:49:03;17.25;;;10.23;;
27003;SDS011;14546;47.590;19.022;2023-03-14T02:51:29;21.48;;;10.98;;
27003;SDS011;14546;47.590;19.022;2023-03-14T02:53:55;19.83;;;11.32;;
27003;SDS011;14546;47.590;19.022;2023-03-14T02:56:21;21.98;;;11.75;;
27003;SDS011;14546;47.590;19.022;2023-03-14T02:58:47;19.42;;;11.40;;
27003;SDS011;14546;47.590;19.022;2023-03-14T03:01:13;20.48;;;11.38;;
27003;SDS011;14546;47.590;19.022;2023-03-14T03:03:40;22.58;;;10.98;;
27003;SDS011;14546;47.590;19.022;2023-03-14T03:06:06;22.55;;;11.40;;
27003;SDS011;14546;47.590;19.022;2023-03-14T03:08:32;20.17;;;12.27;;
27003;SDS011;14546;47.590;19.022;2023-03-14T03:10:58;21.50;;;11.75;;
27003;SDS011;14546;47.590;19.022;2023-03-14T03:13:24;19.83;;;10.35;;
27003;SDS011;14546;47.590;19.022;2023-03-14T03:15:51;20.77;;;11.50;;
27003;SDS011;14546;47.590;19.022;2023-03-14T03:18:17;19.45;;;11.07;;
27003;SDS011;14546;47.590;19.022;2023-03-14T03:20:43;21.05;;;11.45;;
27003;SDS011;14546;47.590;19.022;2023-03-14T03:23:10;17.38;;;10.90;;
27003;SDS011;14546;47.590;19.022;2023-03-14T03:25:36;16.00;;;10.80;;
27003;SDS011;14546;47.590;19.022;2023-03-14T03:28:02;18.00;;;11.38;;
27003;SDS011;14546;47.590;19.022;2023-03-14T03:30:32;19.02;;;10.63;;
27003;SDS011;14546;47.590;19.022;2023-03-14T03:32:58;21.80;;;11.90;;
27003;SDS011;14546;47.590;19.022;2023-03-14T03:35:24;19.20;;;10.80;;
27003;SDS011;14546;47.590;19.022;2023-03-14T03:37:50;19.33;;;11.35;;
27003;SDS011;14546;47.590;19.022;2023-03-14T03:40:16;17.98;;;10.77;;
27003;SDS011;14546;47.590;19.022;2023-03-14T03:42:43;18.13;;;11.10;;
27003;SDS011;14546;47.590;19.022;2023-03-14T03:45:09;18.60;;;10.30;;
27003;SDS011;14546;47.590;19.022;2023-03-14T03:47:35;18.70;;;11.45;;
27003;SDS011;14546;47.590;19.022;2023-03-14T03:50:01;17.75;;;10.52;;
27003;SDS011;14546;47.590;19.022;2023-03-14T03:52:27;17.13;;;11.20;;
27003;SDS011;14546;47.590;19.022;2023-03-14T03:54:53;20.45;;;11.05;;
27003;SDS011;14546;47.590;19.022;2023-03-14T03:57:19;22.17;;;12.38;;
27003;SDS011;14546;47.590;19.022;2023-03-14T03:59:45;17.00;;;10.88;;
27003;SDS011;14546;47.590;19.022;2023-03-14T04:02:11;19.95;;;11.07;;
27003;SDS011;14546;47.590;19.022;2023-03-14T04:04:37;19.63;;;11.68;;
27003;SDS011;14546;47.590;19.022;2023-03-14T04:07:03;22.10;;;11.57;;
27003;SDS011;14546;47.590;19.022;2023-03-14T04:09:29;21.45;;;11.07;;
27003;SDS011;14546;47.590;19.022;2023-03-14T04:11:55;19.70;;;11.52;;
27003;SDS011;14546;47.590;19.022;2023-03-14T04:14:21;20.58;;;11.20;;
27003;SDS011;14546;47.590;19.022;2023-03-14T04:16:47;18.10;;;10.70;;
27003;SDS011;14546;47.590;19.022;2023-03-14T04:19:13;19.17;;;10.82;;
27003;SDS011;14546;47.590;19.022;2023-03-14T04:21:39;19.02;;;10.90;;
27003;SDS011;14546;47.590;19.022;2023-03-14T04:24:11;17.58;;;11.20;;
27003;SDS011;14546;47.590;19.022;2023-03-14T04:26:38;23.73;;;11.68;;
27003;SDS011;14546;47.590;19.022;2023-03-14T04:29:04;21.90;;;10.57;;
27003;SDS011;14546;47.590;19.022;2023-03-14T04:31:30;23.30;;;11.10;;
27003;SDS011;14546;47.590;19.022;2023-03-14T04:33:56;17.20;;;10.85;;
27003;SDS011;14546;47.590;19.022;2023-03-14T04:36:22;23.50;;;11.48;;
27003;SDS011;14546;47.590;19.022;2023-03-14T04:38:48;19.02;;;10.90;;
27003;SDS011;14546;47.590;19.022;2023-03-14T04:41:14;19.00;;;10.50;;
27003;SDS011;14546;47.590;19.022;2023-03-14T04:43:40;21.38;;;10.48;;
27003;SDS011;14546;47.590;19.022;2023-03-14T04:46:06;19.30;;;10.93;;
27003;SDS011;14546;47.590;19.022;2023-03-14T04:48:32;18.88;;;11.20;;
27003;SDS011;14546;47.590;19.022;2023-03-14T04:50:59;16.48;;;10.50;;
27003;SDS011;14546;47.590;19.022;2023-03-14T04:53:25;17.48;;;10.60;;
27003;SDS011;14546;47.590;19.022;2023-03-14T04:55:51;17.92;;;10.48;;
27003;SDS011;14546;47.590;19.022;2023-03-14T04:58:19;18.35;;;10.80;;
27003;SDS011;14546;47.590;19.022;2023-03-14T05:00:46;17.30;;;10.48;;
27003;SDS011;14546;47.590;19.022;2023-03-14T05:03:15;17.55;;;10.13;;
27003;SDS011;14546;47.590;19.022;2023-03-14T05:05:41;17.38;;;10.15;;
27003;SDS011;14546;47.590;19.022;2023-03-14T05:08:07;18.55;;;10.73;;
27003;SDS011;14546;47.590;19.022;2023-03-14T05:10:33;20.73;;;10.30;;
27003;SDS011;14546;47.590;19.022;2023-03-14T05:13:00;16.90;;;9.43;;
27003;SDS011;14546;47.590;19.022;2023-03-14T05:15:26;20.17;;;10.38;;
27003;SDS011;14546;47.590;19.022;2023-03-14T05:17:53;18.75;;;10.18;;
27003;SDS011;14546;47.590;19.022;2023-03-14T05:20:19;16.48;;;10.45;;
27003;SDS011;14546;47.590;19.022;2023-03-14T05:22:45;19.65;;;10.82;;
27003;SDS011;14546;47.590;19.022;2023-03-14T05:25:11;19.25;;;10.48;;
27003;SDS011;14546;47.590;19.022;2023-03-14T05:27:37;17.35;;;9.88;;
27003;SDS011;14546;47.590;19.022;2023-03-14T05:30:04;22.27;;;10.95;;
27003;SDS011;14546;47.590;19.022;2023-03-14T05:32:31;20.35;;;10.27;;
27003;SDS011;14546;47.590;19.022;2023-03-14T05:34:57;16.73;;;9.60;;
27003;SDS011;14546;47.590;19.022;2023-03-14T05:37:27;16.40;;;9.73;;
27003;SDS011;14546;47.590;19.022;2023-03-14T05:39:53;17.75;;;9.80;;
27003;SDS011;14546;47.590;19.022;2023-03-14T05:42:19;21.58;;;10.60;;
27003;SDS011;14546;47.590;19.022;2023-03-14T05:44:46;17.95;;;10.20;;
27003;SDS011;14546;47.590;19.022;2023-03-14T05:47:12;20.73;;;10.63;;
27003;SDS011;14546;47.590;19.022;2023-03-14T05:49:38;19.83;;;10.18;;
27003;SDS011;14546;47.590;19.022;2023-03-14T05:52:04;19.20;;;10.32;;
27003;SDS011;14546;47.590;19.022;2023-03-14T05:54:30;36.25;;;10.32;;
27003;SDS011;14546;47.590;19.022;2023-03-14T05:56:57;18.77;;;10.15;;
27003;SDS011;14546;47.590;19.022;2023-03-14T05:59:23;17.90;;;9.43;;
27003;SDS011;14546;47.590;19.022;2023-03-14T06:01:50;20.83;;;10.07;;
27003;SDS011;14546;47.590;19.022;2023-03-14T06:04:17;21.10;;;9.70;;
27003;SDS011;14546;47.590;19.022;2023-03-14T06:06:43;24.45;;;10.05;;
27003;SDS011;14546;47.590;19.022;2023-03-14T06:09:09;18.20;;;9.98;;
27003;SDS011;14546;47.590;19.022;2023-03-14T06:11:36;22.77;;;9.30;;
27003;SDS011;14546;47.590;19.022;2023-03-14T06:14:04;21.65;;;8.88;;
27003;SDS011;14546;47.590;19.022;2023-03-14T06:16:30;23.65;;;8.77;;
27003;SDS011;14546;47.590;19.022;2023-03-14T06:18:57;16.13;;;8.93;;
27003;SDS011;14546;47.590;19.022;2023-03-14T06:21:23;16.38;;;8.45;;
27003;SDS011;14546;47.590;19.022;2023-03-14T06:23:50;19.30;;;8.95;;
27003;SDS011;14546;47.590;19.022;2023-03-14T06:26:16;16.48;;;9.32;;
27003;SDS011;14546;47.590;19.022;2023-03-14T06:28:42;14.00;;;8.38;;
27003;SDS011;14546;47.590;19.022;2023-03-14T06:31:09;19.02;;;9.13;;
27003;SDS011;14546;47.590;19.022;2023-03-14T06:33:36;17.42;;;8.80;;
27003;SDS011;14546;47.590;19.022;2023-03-14T06:36:02;14.48;;;7.85;;
27003;SDS011;14546;47.590;19.022;2023-03-14T06:38:29;16.02;;;8.30;;
27003;SDS011;14546;47.590;19.022;2023-03-14T06:40:56;13.27;;;7.68;;
27003;SDS011;14546;47.590;19.022;2023-03-14T06:43:23;17.65;;;8.38;;
27003;SDS011;14546;47.590;19.022;2023-03-14T06:45:49;16.83;;;8.05;;
27003;SDS011;14546;47.590;19.022;2023-03-14T06:48:16;20.65;;;8.77;;
27003;SDS011;14546;47.590;19.022;2023-03-14T06:50:43;15.77;;;8.45;;
27003;SDS011;14546;47.590;19.022;2023-03-14T06:53:09;17.10;;;9.32;;
27003;SDS011;14546;47.590;19.022;2023-03-14T06:55:35;13.85;;;8.00;;
27003;SDS011;14546;47.590;19.022;2023-03-14T06:58:01;27.88;;;8.77;;
27003;SDS011;14546;47.590;19.022;2023-03-14T07:00:27;16.48;;;8.07;;
27003;SDS011;14546;47.590;19.022;2023-03-14T07:02:53;14.45;;;8.68;;
27003;SDS011;14546;47.590;19.022;2023-03-14T07:05:20;18.88;;;8.38;;
27003;SDS011;14546;47.590;19.022;2023-03-14T07:07:46;16.90;;;8.60;;
27003;SDS011;14546;47.590;19.022;2023-03-14T07:10:12;18.08;;;8.60;;
27003;SDS011;14546;47.590;19.022;2023-03-14T07:12:38;15.75;;;8.50;;
27003;SDS011;14546;47.590;19.022;2023-03-14T07:15:04;20.33;;;8.98;;
27003;SDS011;14546;47.590;19.022;2023-03-14T07:17:30;27.88;;;9.23;;
27003;SDS011;14546;47.590;19.022;2023-03-14T07:19:56;19.23;;;8.75;;
27003;SDS011;14546;47.590;19.022;2023-03-14T07:22:24;17.05;;;8.80;;
27003;SDS011;14546;47.590;19.022;2023-03-14T07:24:50;19.67;;;8.90;;
27003;SDS011;14546;47.590;19.022;2023-03-14T07:27:16;22.00;;;9.30;;
27003;SDS011;14546;47.590;19.022;2023-03-14T07:29:42;14.95;;;8.15;;
27003;SDS011;14546;47.590;19.022;2023-03-14T07:32:08;15.38;;;9.15;;
27003;SDS011;14546;47.590;19.022;2023-03-14T07:34:35;16.27;;;8.82;;
27003;SDS011;14546;47.590;19.022;2023-03-14T07:37:01;18.15;;;8.20;;
27003;SDS011;14546;47.590;19.022;2023-03-14T07:39:27;23.17;;;8.40;;
27003;SDS011;14546;47.590;19.022;2023-03-14T07:41:53;13.88;;;7.85;;
27003;SDS011;14546;47.590;19.022;2023-03-14T07:44:19;16.00;;;8.60;;
27003;SDS011;14546;47.590;19.022;2023-03-14T07:46:45;16.08;;;8.90;;
27003;SDS011;14546;47.590;19.022;2023-03-14T07:49:11;14.93;;;8.65;;
27003;SDS011;14546;47.590;19.022;2023-03-14T07:51:37;14.50;;;8.48;;
27003;SDS011;14546;47.590;19.022;2023-03-14T07:54:03;20.33;;;9.30;;
27003;SDS011;14546;47.590;19.022;2023-03-14T07:56:29;20.58;;;8.52;;
27003;SDS011;14546;47.590;19.022;2023-03-14T07:58:56;20.13;;;8.82;;
27003;SDS011;14546;47.590;19.022;2023-03-14T08:01:22;16.70;;;8.80;;
27003;SDS011;14546;47.590;19.022;2023-03-14T08:03:48;17.75;;;8.77;;
27003;SDS011;14546;47.590;19.022;2023-03-14T08:06:14;17.10;;;8.88;;
27003;SDS011;14546;47.590;19.022;2023-03-14T08:08:40;16.35;;;7.97;;
27003;SDS011;14546;47.590;19.022;2023-03-14T08:11:06;20.23;;;8.50;;
27003;SDS011;14546;47.590;19.022;2023-03-14T08:13:36;16.90;;;8.90;;
27003;SDS011;14546;47.590;19.022;2023-03-14T08:16:03;21.60;;;8.73;;
27003;SDS011;14546;47.590;19.022;2023-03-14T08:18:29;18.38;;;8.57;;
27003;SDS011;14546;47.590;19.022;2023-03-14T08:20:55;16.30;;;8.95;;
27003;SDS011;14546;47.590;19.022;2023-03-14T08:23:23;18.75;;;8.10;;
27003;SDS011;14546;47.590;19.022;2023-03-14T08:25:49;15.25;;;7.90;;
27003;SDS011;14546;47.590;19.022;2023-03-14T08:28:15;14.10;;;8.60;;
27003;SDS011;14546;47.590;19.022;2023-03-14T08:30:41;17.40;;;9.43;;
27003;SDS011;14546;47.590;19.022;2023-03-14T08:33:07;16.30;;;8.45;;
27003;SDS011;14546;47.590;19.022;2023-03-14T08:35:33;19.02;;;8.80;;
27003;SDS011;14546;47.590;19.022;2023-03-14T08:37:59;21.55;;;7.95;;
27003;SDS011;14546;47.590;19.022;2023-03-14T08:40:26;11.13;;;8.05;;
27003;SDS011;14546;47.590;19.022;2023-03-14T08:42:52;20.20;;;8.25;;
27003;SDS011;14546;47.590;19.022;2023-03-14T08:45:18;19.42;;;8.80;;
27003;SDS011;14546;47.590;19.022;2023-03-14T08:47:44;20.60;;;8.48;;
27003;SDS011;14546;47.590;19.022;2023-03-14T08:50:11;15.38;;;8.32;;
27003;SDS011;14546;47.590;19.022;2023-03-14T08:52:37;20.00;;;8.18;;
27003;SDS011;14546;47.590;19.022;2023-03-14T08:55:06;16.80;;;7.78;;
27003;SDS011;14546;47.590;19.022;2023-03-14T08:57:32;27.65;;;8.50;;
27003;SDS011;14546;47.590;19.022;2023-03-14T08:59:58;15.60;;;8.18;;
27003;SDS011;14546;47.590;19.022;2023-03-14T09:02:25;15.20;;;7.78;;
27003;SDS011;14546;47.590;19.022;2023-03-14T09:04:51;15.90;;;7.28;;
27003;SDS011;14546;47.590;19.022;2023-03-14T09:07:17;19.15;;;7.38;;
27003;SDS011;14546;47.590;19.022;2023-03-14T09:09:44;14.00;;;7.72;;
27003;SDS011;14546;47.590;19.022;2023-03-14T09:12:10;12.65;;;7.88;;
27003;SDS011;14546;47.590;19.022;2023-03-14T09:14:36;16.55;;;7.80;;
27003;SDS011;14546;47.590;19.022;2023-03-14T09:17:02;25.65;;;7.07;;
27003;SDS011;14546;47.590;19.022;2023-03-14T09:19:28;19.15;;;6.90;;
27003;SDS011;14546;47.590;19.022;2023-03-14T09:21:54;14.27;;;7.13;;
27003;SDS011;14546;47.590;19.022;2023-03-14T09:24:20;16.10;;;6.30;;
27003;SDS011;14546;47.590;19.022;2023-03-14T09:26:46;20.30;;;7.07;;
27003;SDS011;14546;47.590;19.022;2023-03-14T09:29:12;22.70;;;6.35;;
27003;SDS011;14546;47.590;19.022;2023-03-14T09:31:38;16.40;;;5.45;;
27003;SDS011;14546;47.590;19.022;2023-03-14T09:34:04;15.52;;;5.63;;
27003;SDS011;14546;47.590;19.022;2023-03-14T09:36:31;16.48;;;5.45;;
27003;SDS011;14546;47.590;19.022;2023-03-14T09:38:57;16.58;;;5.30;;
27003;SDS011;14546;47.590;19.022;2023-03-14T09:41:36;28.35;;;6.10;;
27003;SDS011;14546;47.590;19.022;2023-03-14T09:44:20;13.82;;;5.28;;
27003;SDS011;14546;47.590;19.022;2023-03-14T09:46:48;17.02;;;5.43;;
27003;SDS011;14546;47.590;19.022;2023-03-14T09:49:29;11.50;;;5.95;;
27003;SDS011;14546;47.590;19.022;2023-03-14T09:51:57;16.48;;;5.00;;
27003;SDS011;14546;47.590;19.022;2023-03-14T09:54:31;15.60;;;5.68;;
27003;SDS011;14546;47.590;19.022;2023-03-14T09:56:59;13.45;;;5.30;;
27003;SDS011;14546;47.590;19.022;2023-03-14T09:59:25;21.00;;;5.55;;
27003;SDS011;14546;47.590;19.022;2023-03-14T10:01:53;17.45;;;5.90;;
27003;SDS011;14546;47.590;19.022;2023-03-14T10:04:20;21.13;;;6.05;;
27003;SDS011;14546;47.590;19.022;2023-03-14T10:06:48;15.60;;;5.35;;
27003;SDS011;14546;47.590;19.022;2023-03-14T10:09:20;14.68;;;5.53;;
27003;SDS011;14546;47.590;19.022;2023-03-14T10:11:51;19.88;;;5.43;;
27003;SDS011;14546;47.590;19.022;2023-03-14T10:14:28;17.27;;;5.47;;
27003;SDS011;14546;47.590;19.022;2023-03-14T10:16:54;11.48;;;5.22;;
27003;SDS011;14546;47.590;19.022;2023-03-14T10:19:20;16.30;;;6.00;;
27003;SDS011;14546;47.590;19.022;2023-03-14T10:21:53;14.98;;;5.60;;
27003;SDS011;14546;47.590;19.022;2023-03-14T10:24:21;15.63;;;4.93;;
27003;SDS011;14546;47.590;19.022;2023-03-14T10:26:49;17.10;;;4.95;;
27003;SDS011;14546;47.590;19.022;2023-03-14T10:29:15;16.23;;;5.00;;
27003;SDS011;14546;47.590;19.022;2023-03-14T10:31:46;14.60;;;5.00;;
27003;SDS011;14546;47.590;19.022;2023-03-14T10:34:15;19.02;;;5.07;;
27003;SDS011;14546;47.590;19.022;2023-03-14T10:36:41;15.98;;;2.92;;
27003;SDS011;14546;47.590;19.022;2023-03-14T10:41:53;8.73;;;1.75;;
27003;SDS011;14546;47.590;19.022;2023-03-14T10:44:23;12.18;;;2.03;;
27003;SDS011;14546;47.590;19.022;2023-03-14T10:47:01;5.25;;;1.52;;
27003;SDS011;14546;47.590;19.022;2023-03-14T10:49:32;11.70;;;2.03;;
27003;SDS011;14546;47.590;19.022;2023-03-14T10:52:02;4.50;;;1.48;;
27003;SDS011;14546;47.590;19.022;2023-03-14T10:54:38;4.68;;;1.27;;
27003;SDS011;14546;47.590;19.022;2023-03-14T10:57:04;17.38;;;2.20;;
27003;SDS011;14546;47.590;19.022;2023-03-14T10:59:38;7.30;;;1.83;;
27003;SDS011;14546;47.590;19.022;2023-03-14T11:09:47;5.30;;;1.55;;
27003;SDS011;14546;47.590;19.022;2023-03-14T11:12:23;6.70;;;1.42;;
27003;SDS011;14546;47.590;19.022;2023-03-14T11:14:54;4.88;;;1.30;;
27003;SDS011;14546;47.590;19.022;2023-03-14T11:17:29;3.03;;;1.30;;
27003;SDS011;14546;47.590;19.022;2023-03-14T11:22:43;4.07;;;1.15;;
27003;SDS011;14546;47.590;19.022;2023-03-14T11:25:27;9.00;;;1.60;;
27003;SDS011;14546;47.590;19.022;2023-03-14T11:30:31;11.77;;;1.90;;
27003;SDS011;14546;47.590;19.022;2023-03-14T11:33:08;4.32;;;1.20;;
27003;SDS011;14546;47.590;19.022;2023-03-14T11:40:52;6.05;;;1.42;;
27003;SDS011;14546;47.590;19.022;2023-03-14T11:46:20;8.77;;;1.48;;
27003;SDS011;14546;47.590;19.022;2023-03-14T11:48:45;6.65;;;1.20;;
27003;SDS011;14546;47.590;19.022;2023-03-14T11:51:25;2.50;;;1.10;;
27003;SDS011;14546;47.590;19.022;2023-03-14T11:53:57;5.22;;;1.52;;
27003;SDS011;14546;47.590;19.022;2023-03-14T11:59:08;3.10;;;1.25;;
27003;SDS011;14546;47.590;19.022;2023-03-14T12:01:41;7.07;;;1.33;;
27003;SDS011;14546;47.590;19.022;2023-03-14T12:09:12;7.28;;;1.10;;
27003;SDS011;14546;47.590;19.022;2023-03-14T12:11:40;4.07;;;1.13;;
27003;SDS011;14546;47.590;19.022;2023-03-14T12:19:32;2.97;;;1.15;;
27003;SDS011;14546;47.590;19.022;2023-03-14T12:22:00;3.97;;;1.20;;
27003;SDS011;14546;47.590;19.022;2023-03-14T12:24:30;5.05;;;1.20;;
27003;SDS011;14546;47.590;19.022;2023-03-14T12:27:01;3.95;;;1.20;;
27003;SDS011;14546;47.590;19.022;2023-03-14T12:29:27;6.90;;;1.63;;
27003;SDS011;14546;47.590;19.022;2023-03-14T12:37:01;6.65;;;1.70;;
27003;SDS011;14546;47.590;19.022;2023-03-14T12:39:35;7.28;;;1.30;;
27003;SDS011;14546;47.590;19.022;2023-03-14T12:49:43;6.82;;;1.60;;
27003;SDS011;14546;47.590;19.022;2023-03-14T12:52:13;2.80;;;1.42;;
27003;SDS011;14546;47.590;19.022;2023-03-14T12:57:20;3.00;;;1.40;;
27003;SDS011;14546;47.590;19.022;2023-03-14T12:59:51;4.63;;;1.85;;
27003;SDS011;14546;47.590;19.022;2023-03-14T13:02:21;3.25;;;1.40;;
27003;SDS011;14546;47.590;19.022;2023-03-14T13:07:31;5.25;;;2.00;;
27003;SDS011;14546;47.590;19.022;2023-03-14T13:12:25;2.55;;;1.45;;
27003;SDS011;14546;47.590;19.022;2023-03-14T13:14:53;6.88;;;1.30;;
27003;SDS011;14546;47.590;19.022;2023-03-14T13:17:22;4.95;;;1.30;;
27003;SDS011;14546;47.590;19.022;2023-03-14T13:19:50;4.22;;;1.48;;
27003;SDS011;14546;47.590;19.022;2023-03-14T13:22:22;3.30;;;1.42;;
27003;SDS011;14546;47.590;19.022;2023-03-14T13:24:49;2.17;;;1.35;;
27003;SDS011;14546;47.590;19.022;2023-03-14T13:27:19;4.40;;;1.50;;
27003;SDS011;14546;47.590;19.022;2023-03-14T13:29:48;7.85;;;1.63;;
27003;SDS011;14546;47.590;19.022;2023-03-14T13:34:43;2.15;;;1.45;;
27003;SDS011;14546;47.590;19.022;2023-03-14T13:37:19;5.85;;;1.98;;
27003;SDS011;14546;47.590;19.022;2023-03-14T13:39:55;4.30;;;1.50;;
27003;SDS011;14546;47.590;19.022;2023-03-14T13:42:24;4.20;;;1.30;;
27003;SDS011;14546;47.590;19.022;2023-03-14T13:44:51;6.47;;;1.90;;
27003;SDS011;14546;47.590;19.022;2023-03-14T13:47:18;3.85;;;1.48;;
27003;SDS011;14546;47.590;19.022;2023-03-14T13:49:46;2.40;;;1.42;;
27003;SDS011;14546;47.590;19.022;2023-03-14T13:52:32;3.60;;;1.50;;
27003;SDS011;14546;47.590;19.022;2023-03-14T13:55:01;4.25;;;2.17;;
27003;SDS011;14546;47.590;19.022;2023-03-14T13:57:47;2.42;;;1.40;;
27003;SDS011;14546;47.590;19.022;2023-03-14T14:00:18;5.40;;;1.67;;
27003;SDS011;14546;47.590;19.022;2023-03-14T14:02:45;4.45;;;2.20;;
27003;SDS011;14546;47.590;19.022;2023-03-14T14:05:12;5.20;;;1.80;;
27003;SDS011;14546;47.590;19.022;2023-03-14T14:07:38;4.07;;;1.70;;
27003;SDS011;14546;47.590;19.022;2023-03-14T14:10:05;7.25;;;2.00;;
27003;SDS011;14546;47.590;19.022;2023-03-14T14:12:37;6.47;;;2.00;;
27003;SDS011;14546;47.590;19.022;2023-03-14T14:17:31;3.17;;;1.30;;
27003;SDS011;14546;47.590;19.022;2023-03-14T14:19:58;5.93;;;1.60;;
27003;SDS011;14546;47.590;19.022;2023-03-14T14:22:25;3.78;;;1.60;;
27003;SDS011;14546;47.590;19.022;2023-03-14T14:24:51;2.08;;;1.40;;
27003;SDS011;14546;47.590;19.022;2023-03-14T14:29:56;4.25;;;1.55;;
27003;SDS011;14546;47.590;19.022;2023-03-14T14:32:22;3.40;;;1.48;;
27003;SDS011;14546;47.590;19.022;2023-03-14T14:38:02;4.95;;;2.10;;
27003;SDS011;14546;47.590;19.022;2023-03-14T14:40:17;3.80;;;1.70;;
27003;SDS011;14546;47.590;19.022;2023-03-14T14:42:44;9.00;;;1.75;;
27003;SDS011;14546;47.590;19.022;2023-03-14T14:45:12;128.65;;;7.38;;
27003;SDS011;14546;47.590;19.022;2023-03-14T14:47:48;40.80;;;3.55;;
27003;SDS011;14546;47.590;19.022;2023-03-14T14:50:26;5.65;;;1.70;;
27003;SDS011;14546;47.590;19.022;2023-03-14T14:52:56;6.85;;;1.88;;
27003;SDS011;14546;47.590;19.022;2023-03-14T14:55:22;18.65;;;3.20;;
27003;SDS011;14546;47.590;19.022;2023-03-14T14:57:49;8.40;;;2.10;;
27003;SDS011;14546;47.590;19.022;2023-03-14T15:00:22;6.10;;;2.25;;
27003;SDS011;14546;47.590;19.022;2023-03-14T15:02:49;6.85;;;1.85;;
27003;SDS011;14546;47.590;19.022;2023-03-14T15:05:21;4.80;;;2.03;;
27003;SDS011;14546;47.590;19.022;2023-03-14T15:07:49;6.70;;;2.10;;
27003;SDS011;14546;47.590;19.022;2023-03-14T15:10:17;6.13;;;2.00;;
27003;SDS011;14546;47.590;19.022;2023-03-14T15:12:43;3.83;;;1.70;;
27003;SDS011;14546;47.590;19.022;2023-03-14T15:15:09;7.13;;;1.73;;
27003;SDS011;14546;47.590;19.022;2023-03-14T15:17:36;4.28;;;1.73;;
27003;SDS011;14546;47.590;19.022;2023-03-14T15:20:03;5.57;;;1.63;;
27003;SDS011;14546;47.590;19.022;2023-03-14T15:22:29;6.85;;;1.95;;
27003;SDS011;14546;47.590;19.022;2023-03-14T15:24:55;9.13;;;2.20;;
27003;SDS011;14546;47.590;19.022;2023-03-14T15:27:21;4.18;;;1.95;;
27003;SDS011;14546;47.590;19.022;2023-03-14T15:29:48;5.47;;;1.70;;
27003;SDS011;14546;47.590;19.022;2023-03-14T15:32:15;4.60;;;1.63;;
27003;SDS011;14546;47.590;19.022;2023-03-14T15:34:41;4.20;;;1.75;;
27003;SDS011;14546;47.590;19.022;2023-03-14T15:37:11;3.83;;;1.75;;
27003;SDS011;14546;47.590;19.022;2023-03-14T15:39:37;6.55;;;1.98;;
27003;SDS011;14546;47.590;19.022;2023-03-14T15:42:03;4.38;;;2.30;;